Lockerbie, United Kingdom
Current Conditions -  °F | °C
As of 10:50 PM on Monday 24 Nov 2014 (Local Time) from EGPK Reporting Station
Light Rain Light Rain  
Wind Chill:   Ceiling: 1100
Heat Index:   Visibility: 4mi
Dew Point:   Wind: 7mph
Humidity: 93%   Direction: 180°S
Pressure: 30.24"   Gusts: NA
Location:  55.12°N, 3.36°W
Report Text: EGPK 242250Z 18006KT 7000 -RADZ SCT007 BKN011 08/07 Q1024
Loading
Personal Weather Stations






























Interactive Weather Map New forecast layout! Learn more

10-Day Weather Forecast

Advertisements
Track Severe Weather on mobile